sensor_id;sensor_type;location;lat;lon;timestamp;temperature;humidity
18163;DHT22;9206;50.994;4.538;2023-05-09T00:05:06;14.30;99.90
18163;DHT22;9206;50.994;4.538;2023-05-09T00:08:46;14.30;99.90
18163;DHT22;9206;50.994;4.538;2023-05-09T00:12:06;14.20;99.90
18163;DHT22;9206;50.994;4.538;2023-05-09T00:16:11;14.20;99.90
18163;DHT22;9206;50.994;4.538;2023-05-09T00:18:43;14.20;99.90
18163;DHT22;9206;50.994;4.538;2023-05-09T00:21:39;14.10;99.90
18163;DHT22;9206;50.994;4.538;2023-05-09T00:25:08;14.20;99.90
18163;DHT22;9206;50.994;4.538;2023-05-09T00:28:55;14.10;99.90
18163;DHT22;9206;50.994;4.538;2023-05-09T00:39:28;14.10;99.90
18163;DHT22;9206;50.994;4.538;2023-05-09T00:42:58;14.10;99.90
18163;DHT22;9206;50.994;4.538;2023-05-09T00:49:28;14.00;99.90
18163;DHT22;9206;50.994;4.538;2023-05-09T00:52:56;14.00;99.90
18163;DHT22;9206;50.994;4.538;2023-05-09T00:56:23;14.00;99.90
18163;DHT22;9206;50.994;4.538;2023-05-09T00:59:24;14.00;99.90
18163;DHT22;9206;50.994;4.538;2023-05-09T01:05:32;13.90;99.90
18163;DHT22;9206;50.994;4.538;2023-05-09T01:12:59;13.90;99.90
18163;DHT22;9206;50.994;4.538;2023-05-09T01:16:42;13.90;99.90
18163;DHT22;9206;50.994;4.538;2023-05-09T01:24:04;13.90;99.90
18163;DHT22;9206;50.994;4.538;2023-05-09T01:28:11;13.90;99.90
18163;DHT22;9206;50.994;4.538;2023-05-09T01:35:04;13.90;99.90
18163;DHT22;9206;50.994;4.538;2023-05-09T01:56:02;13.80;99.90
18163;DHT22;9206;50.994;4.538;2023-05-09T01:59:43;13.70;99.90
18163;DHT22;9206;50.994;4.538;2023-05-09T02:07:15;13.70;99.90
18163;DHT22;9206;50.994;4.538;2023-05-09T02:11:15;13.80;99.90
18163;DHT22;9206;50.994;4.538;2023-05-09T02:14:32;13.70;99.90
18163;DHT22;9206;50.994;4.538;2023-05-09T02:20:56;13.70;99.90
18163;DHT22;9206;50.994;4.538;2023-05-09T02:28:18;13.60;99.90
18163;DHT22;9206;50.994;4.538;2023-05-09T02:42:15;13.50;99.90
18163;DHT22;9206;50.994;4.538;2023-05-09T02:45:51;13.50;99.90
18163;DHT22;9206;50.994;4.538;2023-05-09T02:49:05;13.50;99.90
18163;DHT22;9206;50.994;4.538;2023-05-09T02:54:29;13.50;99.90
18163;DHT22;9206;50.994;4.538;2023-05-09T02:56:03;13.50;99.90
18163;DHT22;9206;50.994;4.538;2023-05-09T03:02:40;13.50;99.90
18163;DHT22;9206;50.994;4.538;2023-05-09T03:06:02;13.60;99.90
18163;DHT22;9206;50.994;4.538;2023-05-09T03:11:36;13.60;99.90
18163;DHT22;9206;50.994;4.538;2023-05-09T03:14:55;13.60;99.90
18163;DHT22;9206;50.994;4.538;2023-05-09T03:18:05;13.60;99.90
18163;DHT22;9206;50.994;4.538;2023-05-09T03:21:18;13.60;99.90
18163;DHT22;9206;50.994;4.538;2023-05-09T03:28:34;13.70;99.90
18163;DHT22;9206;50.994;4.538;2023-05-09T03:31:56;13.60;99.90
18163;DHT22;9206;50.994;4.538;2023-05-09T03:35:33;13.60;99.90
18163;DHT22;9206;50.994;4.538;2023-05-09T03:38:55;13.60;99.90
18163;DHT22;9206;50.994;4.538;2023-05-09T03:42:17;13.70;99.90
18163;DHT22;9206;50.994;4.538;2023-05-09T03:45:47;13.70;99.90
18163;DHT22;9206;50.994;4.538;2023-05-09T03:49:29;13.70;99.90
18163;DHT22;9206;50.994;4.538;2023-05-09T03:56:07;13.70;99.90
18163;DHT22;9206;50.994;4.538;2023-05-09T03:58:54;13.70;99.90
18163;DHT22;9206;50.994;4.538;2023-05-09T04:02:07;13.80;99.90
18163;DHT22;9206;50.994;4.538;2023-05-09T04:05:22;13.80;99.90
18163;DHT22;9206;50.994;4.538;2023-05-09T04:08:40;13.80;99.90
18163;DHT22;9206;50.994;4.538;2023-05-09T04:11:57;13.80;99.90
18163;DHT22;9206;50.994;4.538;2023-05-09T04:14:59;13.90;99.90
18163;DHT22;9206;50.994;4.538;2023-05-09T04:18:13;13.90;99.90
18163;DHT22;9206;50.994;4.538;2023-05-09T04:21:25;13.90;99.90
18163;DHT22;9206;50.994;4.538;2023-05-09T04:31:45;14.00;99.90
18163;DHT22;9206;50.994;4.538;2023-05-09T04:34:48;14.00;99.90
18163;DHT22;9206;50.994;4.538;2023-05-09T04:37:53;14.00;99.90
18163;DHT22;9206;50.994;4.538;2023-05-09T04:40:46;14.00;99.90
18163;DHT22;9206;50.994;4.538;2023-05-09T04:43:39;14.00;99.90
18163;DHT22;9206;50.994;4.538;2023-05-09T04:46:28;14.00;99.90
18163;DHT22;9206;50.994;4.538;2023-05-09T04:49:23;14.00;99.90
18163;DHT22;9206;50.994;4.538;2023-05-09T04:52:19;14.00;99.90
18163;DHT22;9206;50.994;4.538;2023-05-09T04:55:14;14.10;99.90
18163;DHT22;9206;50.994;4.538;2023-05-09T04:58:08;14.10;99.90
18163;DHT22;9206;50.994;4.538;2023-05-09T05:01:02;14.10;99.90
18163;DHT22;9206;50.994;4.538;2023-05-09T05:03:51;14.10;99.90
18163;DHT22;9206;50.994;4.538;2023-05-09T05:06:41;14.10;99.90
18163;DHT22;9206;50.994;4.538;2023-05-09T05:10:12;14.10;99.90
18163;DHT22;9206;50.994;4.538;2023-05-09T05:13:15;14.10;99.90
18163;DHT22;9206;50.994;4.538;2023-05-09T05:16:07;14.20;99.90
18163;DHT22;9206;50.994;4.538;2023-05-09T05:22:39;14.20;99.90
18163;DHT22;9206;50.994;4.538;2023-05-09T05:25:27;14.20;99.90
18163;DHT22;9206;50.994;4.538;2023-05-09T05:28:50;14.20;99.90
18163;DHT22;9206;50.994;4.538;2023-05-09T05:31:46;14.20;99.90
18163;DHT22;9206;50.994;4.538;2023-05-09T05:34:33;14.20;99.90
18163;DHT22;9206;50.994;4.538;2023-05-09T05:37:22;14.20;99.90
18163;DHT22;9206;50.994;4.538;2023-05-09T05:40:23;14.20;99.90
18163;DHT22;9206;50.994;4.538;2023-05-09T05:43:35;14.20;99.90
18163;DHT22;9206;50.994;4.538;2023-05-09T05:46:24;14.30;99.90
18163;DHT22;9206;50.994;4.538;2023-05-09T05:49:17;14.30;99.90
18163;DHT22;9206;50.994;4.538;2023-05-09T05:56:15;14.30;99.90
18163;DHT22;9206;50.994;4.538;2023-05-09T05:59:17;14.30;99.90
18163;DHT22;9206;50.994;4.538;2023-05-09T06:02:14;14.30;99.90
18163;DHT22;9206;50.994;4.538;2023-05-09T06:08:36;14.30;99.90
18163;DHT22;9206;50.994;4.538;2023-05-09T06:11:26;14.20;99.90
18163;DHT22;9206;50.994;4.538;2023-05-09T06:14:17;14.20;99.90
18163;DHT22;9206;50.994;4.538;2023-05-09T06:17:04;14.20;99.90
18163;DHT22;9206;50.994;4.538;2023-05-09T06:19:58;14.30;99.90
18163;DHT22;9206;50.994;4.538;2023-05-09T06:22:51;14.30;99.90
18163;DHT22;9206;50.994;4.538;2023-05-09T06:25:48;14.40;99.90
18163;DHT22;9206;50.994;4.538;2023-05-09T06:39:32;14.80;99.90
18163;DHT22;9206;50.994;4.538;2023-05-09T06:42:51;14.90;99.90
18163;DHT22;9206;50.994;4.538;2023-05-09T06:53:12;15.20;99.90
18163;DHT22;9206;50.994;4.538;2023-05-09T07:00:07;15.20;99.90
18163;DHT22;9206;50.994;4.538;2023-05-09T07:06:47;15.20;99.90
18163;DHT22;9206;50.994;4.538;2023-05-09T07:09:47;15.20;99.90
18163;DHT22;9206;50.994;4.538;2023-05-09T07:16:10;15.30;99.90
18163;DHT22;9206;50.994;4.538;2023-05-09T07:19:10;15.40;99.90
18163;DHT22;9206;50.994;4.538;2023-05-09T07:25:10;15.50;99.90
18163;DHT22;9206;50.994;4.538;2023-05-09T08:04:10;15.80;99.90
18163;DHT22;9206;50.994;4.538;2023-05-09T08:14:58;15.70;99.90
18163;DHT22;9206;50.994;4.538;2023-05-09T08:31:44;15.60;99.90
18163;DHT22;9206;50.994;4.538;2023-05-09T08:57:13;15.60;99.90
18163;DHT22;9206;50.994;4.538;2023-05-09T09:01:44;15.60;99.90
18163;DHT22;9206;50.994;4.538;2023-05-09T09:27:12;15.60;99.90
18163;DHT22;9206;50.994;4.538;2023-05-09T09:30:34;15.50;99.90
18163;DHT22;9206;50.994;4.538;2023-05-09T09:34:07;15.50;99.90
18163;DHT22;9206;50.994;4.538;2023-05-09T10:33:42;15.40;99.90
18163;DHT22;9206;50.994;4.538;2023-05-09T10:37:00;15.30;99.90
18163;DHT22;9206;50.994;4.538;2023-05-09T10:40:20;15.50;99.90
18163;DHT22;9206;50.994;4.538;2023-05-09T10:43:37;15.70;99.90
18163;DHT22;9206;50.994;4.538;2023-05-09T10:47:05;15.80;99.90
18163;DHT22;9206;50.994;4.538;2023-05-09T10:53:50;16.00;99.90
18163;DHT22;9206;50.994;4.538;2023-05-09T10:56:41;15.90;99.90
18163;DHT22;9206;50.994;4.538;2023-05-09T11:03:19;15.60;99.90
18163;DHT22;9206;50.994;4.538;2023-05-09T11:06:09;15.60;99.90
18163;DHT22;9206;50.994;4.538;2023-05-09T11:09:37;15.50;99.90
18163;DHT22;9206;50.994;4.538;2023-05-09T11:12:57;15.50;99.90
18163;DHT22;9206;50.994;4.538;2023-05-09T11:19:59;15.70;99.90
18163;DHT22;9206;50.994;4.538;2023-05-09T11:29:29;15.70;99.90
18163;DHT22;9206;50.994;4.538;2023-05-09T11:36:18;15.60;99.90
18163;DHT22;9206;50.994;4.538;2023-05-09T11:39:10;15.60;99.90
18163;DHT22;9206;50.994;4.538;2023-05-09T11:41:57;15.60;99.90
18163;DHT22;9206;50.994;4.538;2023-05-09T11:44:51;15.70;99.90
18163;DHT22;9206;50.994;4.538;2023-05-09T11:48:07;15.70;99.90
18163;DHT22;9206;50.994;4.538;2023-05-09T11:51:27;15.80;99.90
18163;DHT22;9206;50.994;4.538;2023-05-09T11:54:17;15.90;99.90
18163;DHT22;9206;50.994;4.538;2023-05-09T11:57:31;15.80;99.90
18163;DHT22;9206;50.994;4.538;2023-05-09T12:00:32;15.90;99.90
18163;DHT22;9206;50.994;4.538;2023-05-09T12:07:50;15.70;99.90
18163;DHT22;9206;50.994;4.538;2023-05-09T12:10:51;15.50;99.90
18163;DHT22;9206;50.994;4.538;2023-05-09T12:20:48;15.50;99.90
18163;DHT22;9206;50.994;4.538;2023-05-09T12:23:38;15.50;99.90
18163;DHT22;9206;50.994;4.538;2023-05-09T12:33:09;15.80;99.90
18163;DHT22;9206;50.994;4.538;2023-05-09T12:36:09;15.80;99.90
18163;DHT22;9206;50.994;4.538;2023-05-09T12:39:08;15.60;99.90
18163;DHT22;9206;50.994;4.538;2023-05-09T12:45:38;15.60;99.90
18163;DHT22;9206;50.994;4.538;2023-05-09T12:51:58;15.50;99.90
18163;DHT22;9206;50.994;4.538;2023-05-09T12:54:47;15.30;99.90
18163;DHT22;9206;50.994;4.538;2023-05-09T12:57:38;15.20;99.90
18163;DHT22;9206;50.994;4.538;2023-05-09T13:00:27;15.30;99.90
18163;DHT22;9206;50.994;4.538;2023-05-09T13:03:28;15.30;99.90
18163;DHT22;9206;50.994;4.538;2023-05-09T13:06:25;15.40;99.90
18163;DHT22;9206;50.994;4.538;2023-05-09T13:09:14;15.40;99.90
18163;DHT22;9206;50.994;4.538;2023-05-09T13:12:03;15.50;99.90
18163;DHT22;9206;50.994;4.538;2023-05-09T13:14:51;15.50;99.90
18163;DHT22;9206;50.994;4.538;2023-05-09T13:17:41;15.50;99.90
18163;DHT22;9206;50.994;4.538;2023-05-09T13:20:30;15.50;99.90
18163;DHT22;9206;50.994;4.538;2023-05-09T13:23:23;15.50;99.90
18163;DHT22;9206;50.994;4.538;2023-05-09T13:26:36;15.50;99.90
18163;DHT22;9206;50.994;4.538;2023-05-09T13:29:35;15.50;99.90
18163;DHT22;9206;50.994;4.538;2023-05-09T13:32:31;15.50;99.90
18163;DHT22;9206;50.994;4.538;2023-05-09T13:35:23;15.40;99.90
18163;DHT22;9206;50.994;4.538;2023-05-09T13:38:30;15.30;99.90
18163;DHT22;9206;50.994;4.538;2023-05-09T13:45:13;15.20;99.90
18163;DHT22;9206;50.994;4.538;2023-05-09T13:55:01;15.20;99.90
18163;DHT22;9206;50.994;4.538;2023-05-09T14:01:40;15.40;99.90
18163;DHT22;9206;50.994;4.538;2023-05-09T14:08:16;15.50;99.90
18163;DHT22;9206;50.994;4.538;2023-05-09T14:11:47;15.50;99.90
18163;DHT22;9206;50.994;4.538;2023-05-09T14:18:21;15.30;99.90
18163;DHT22;9206;50.994;4.538;2023-05-09T14:21:09;15.20;99.90
18163;DHT22;9206;50.994;4.538;2023-05-09T14:24:17;15.10;99.90
18163;DHT22;9206;50.994;4.538;2023-05-09T14:28:01;15.10;99.90
18163;DHT22;9206;50.994;4.538;2023-05-09T14:34:59;15.10;99.90
18163;DHT22;9206;50.994;4.538;2023-05-09T14:38:08;15.10;99.90
18163;DHT22;9206;50.994;4.538;2023-05-09T14:52:30;14.80;99.90
18163;DHT22;9206;50.994;4.538;2023-05-09T15:10:54;14.30;99.90
18163;DHT22;9206;50.994;4.538;2023-05-09T15:13:49;14.30;99.90
18163;DHT22;9206;50.994;4.538;2023-05-09T15:17:01;14.20;99.90
18163;DHT22;9206;50.994;4.538;2023-05-09T15:20:11;14.30;99.90
18163;DHT22;9206;50.994;4.538;2023-05-09T15:23:21;14.40;99.90
18163;DHT22;9206;50.994;4.538;2023-05-09T15:26:21;14.40;99.90
18163;DHT22;9206;50.994;4.538;2023-05-09T15:29:09;14.50;99.90
18163;DHT22;9206;50.994;4.538;2023-05-09T15:32:11;14.60;99.90
18163;DHT22;9206;50.994;4.538;2023-05-09T15:35:34;14.60;99.90
18163;DHT22;9206;50.994;4.538;2023-05-09T15:45:50;14.50;99.90
18163;DHT22;9206;50.994;4.538;2023-05-09T15:49:00;14.50;99.90
18163;DHT22;9206;50.994;4.538;2023-05-09T15:52:01;14.60;99.90
18163;DHT22;9206;50.994;4.538;2023-05-09T15:54:55;14.40;99.90
18163;DHT22;9206;50.994;4.538;2023-05-09T15:57:50;14.40;99.90
18163;DHT22;9206;50.994;4.538;2023-05-09T16:00:44;14.30;99.90
18163;DHT22;9206;50.994;4.538;2023-05-09T16:03:36;14.30;99.90
18163;DHT22;9206;50.994;4.538;2023-05-09T16:06:27;14.40;99.90
18163;DHT22;9206;50.994;4.538;2023-05-09T16:09:16;14.40;99.90
18163;DHT22;9206;50.994;4.538;2023-05-09T16:12:08;14.50;99.90
18163;DHT22;9206;50.994;4.538;2023-05-09T16:14:55;14.40;99.90
18163;DHT22;9206;50.994;4.538;2023-05-09T16:17:48;14.40;99.90
18163;DHT22;9206;50.994;4.538;2023-05-09T16:20:40;14.50;99.90
18163;DHT22;9206;50.994;4.538;2023-05-09T16:23:30;14.50;99.90
18163;DHT22;9206;50.994;4.538;2023-05-09T16:26:18;14.50;99.90
18163;DHT22;9206;50.994;4.538;2023-05-09T16:29:31;14.60;99.90
18163;DHT22;9206;50.994;4.538;2023-05-09T16:32:25;14.60;99.90
18163;DHT22;9206;50.994;4.538;2023-05-09T16:35:13;14.60;99.90
18163;DHT22;9206;50.994;4.538;2023-05-09T16:38:02;14.60;99.90
18163;DHT22;9206;50.994;4.538;2023-05-09T16:40:55;14.60;99.90
18163;DHT22;9206;50.994;4.538;2023-05-09T16:43:46;14.60;99.90
18163;DHT22;9206;50.994;4.538;2023-05-09T16:46:39;14.60;99.90
18163;DHT22;9206;50.994;4.538;2023-05-09T16:49:30;14.50;99.90
18163;DHT22;9206;50.994;4.538;2023-05-09T16:52:23;14.50;99.90
18163;DHT22;9206;50.994;4.538;2023-05-09T16:55:18;14.50;99.90
18163;DHT22;9206;50.994;4.538;2023-05-09T16:58:06;14.50;99.90
18163;DHT22;9206;50.994;4.538;2023-05-09T17:00:53;14.50;99.90
18163;DHT22;9206;50.994;4.538;2023-05-09T17:03:41;14.50;99.90
18163;DHT22;9206;50.994;4.538;2023-05-09T17:06:30;14.50;99.90
18163;DHT22;9206;50.994;4.538;2023-05-09T17:09:18;14.50;99.90
18163;DHT22;9206;50.994;4.538;2023-05-09T17:12:09;14.60;99.90
18163;DHT22;9206;50.994;4.538;2023-05-09T17:15:07;14.60;99.90
18163;DHT22;9206;50.994;4.538;2023-05-09T17:18:22;14.60;99.90
18163;DHT22;9206;50.994;4.538;2023-05-09T17:21:16;14.60;99.90
18163;DHT22;9206;50.994;4.538;2023-05-09T17:24:05;14.70;99.90
18163;DHT22;9206;50.994;4.538;2023-05-09T17:26:54;14.70;99.90
18163;DHT22;9206;50.994;4.538;2023-05-09T17:29:43;14.70;99.90
18163;DHT22;9206;50.994;4.538;2023-05-09T17:32:37;14.70;99.90
18163;DHT22;9206;50.994;4.538;2023-05-09T17:35:29;14.70;99.90
18163;DHT22;9206;50.994;4.538;2023-05-09T17:38:16;14.80;99.90
18163;DHT22;9206;50.994;4.538;2023-05-09T17:41:04;14.80;99.90
18163;DHT22;9206;50.994;4.538;2023-05-09T17:44:00;14.80;99.90
18163;DHT22;9206;50.994;4.538;2023-05-09T17:46:56;14.80;99.90
18163;DHT22;9206;50.994;4.538;2023-05-09T17:49:44;14.80;99.90
18163;DHT22;9206;50.994;4.538;2023-05-09T17:52:33;14.80;99.90
18163;DHT22;9206;50.994;4.538;2023-05-09T17:55:22;14.80;99.90
18163;DHT22;9206;50.994;4.538;2023-05-09T17:58:28;14.90;99.90
18163;DHT22;9206;50.994;4.538;2023-05-09T18:01:17;14.90;99.90
18163;DHT22;9206;50.994;4.538;2023-05-09T18:04:06;14.90;99.90
18163;DHT22;9206;50.994;4.538;2023-05-09T18:06:54;14.90;99.90
18163;DHT22;9206;50.994;4.538;2023-05-09T18:09:47;14.80;99.90
18163;DHT22;9206;50.994;4.538;2023-05-09T18:12:38;14.80;99.90
18163;DHT22;9206;50.994;4.538;2023-05-09T18:15:30;14.80;99.90
18163;DHT22;9206;50.994;4.538;2023-05-09T18:18:39;14.70;99.90
18163;DHT22;9206;50.994;4.538;2023-05-09T18:21:30;14.70;99.90
18163;DHT22;9206;50.994;4.538;2023-05-09T18:24:24;14.70;99.90
18163;DHT22;9206;50.994;4.538;2023-05-09T18:27:17;14.70;99.90
18163;DHT22;9206;50.994;4.538;2023-05-09T18:30:07;14.60;99.90
18163;DHT22;9206;50.994;4.538;2023-05-09T18:33:02;14.60;99.90
18163;DHT22;9206;50.994;4.538;2023-05-09T18:35:54;14.50;99.90
18163;DHT22;9206;50.994;4.538;2023-05-09T18:39:01;14.50;99.90
18163;DHT22;9206;50.994;4.538;2023-05-09T18:42:05;14.40;99.90
18163;DHT22;9206;50.994;4.538;2023-05-09T18:44:52;14.40;99.90
18163;DHT22;9206;50.994;4.538;2023-05-09T18:47:52;14.40;99.90
18163;DHT22;9206;50.994;4.538;2023-05-09T18:50:39;14.40;99.90
18163;DHT22;9206;50.994;4.538;2023-05-09T18:53:26;14.40;99.90
18163;DHT22;9206;50.994;4.538;2023-05-09T18:56:17;14.30;99.90
18163;DHT22;9206;50.994;4.538;2023-05-09T18:59:07;14.30;99.90
18163;DHT22;9206;50.994;4.538;2023-05-09T19:01:58;14.30;99.90
18163;DHT22;9206;50.994;4.538;2023-05-09T19:04:45;14.30;99.90
18163;DHT22;9206;50.994;4.538;2023-05-09T19:07:41;14.30;99.90
18163;DHT22;9206;50.994;4.538;2023-05-09T19:10:30;14.30;99.90
18163;DHT22;9206;50.994;4.538;2023-05-09T19:13:30;14.20;99.90
18163;DHT22;9206;50.994;4.538;2023-05-09T19:16:29;14.20;99.90
18163;DHT22;9206;50.994;4.538;2023-05-09T19:19:45;14.20;99.90
18163;DHT22;9206;50.994;4.538;2023-05-09T19:22:33;14.10;99.90
18163;DHT22;9206;50.994;4.538;2023-05-09T19:25:22;14.10;99.90
18163;DHT22;9206;50.994;4.538;2023-05-09T19:28:10;14.00;99.90
18163;DHT22;9206;50.994;4.538;2023-05-09T19:31:21;14.00;99.90
18163;DHT22;9206;50.994;4.538;2023-05-09T19:34:13;14.00;99.90
18163;DHT22;9206;50.994;4.538;2023-05-09T19:37:15;13.90;99.90
18163;DHT22;9206;50.994;4.538;2023-05-09T19:40:09;13.90;99.90
18163;DHT22;9206;50.994;4.538;2023-05-09T19:42:57;13.90;99.90
18163;DHT22;9206;50.994;4.538;2023-05-09T19:45:45;13.90;99.90
18163;DHT22;9206;50.994;4.538;2023-05-09T19:48:40;13.80;99.90
18163;DHT22;9206;50.994;4.538;2023-05-09T19:51:28;13.90;99.90
18163;DHT22;9206;50.994;4.538;2023-05-09T19:54:16;13.80;99.90
18163;DHT22;9206;50.994;4.538;2023-05-09T19:57:05;13.80;99.90
18163;DHT22;9206;50.994;4.538;2023-05-09T19:59:58;13.80;99.90
18163;DHT22;9206;50.994;4.538;2023-05-09T20:02:59;13.80;99.90
18163;DHT22;9206;50.994;4.538;2023-05-09T20:05:50;13.80;99.90
18163;DHT22;9206;50.994;4.538;2023-05-09T20:08:38;13.80;99.90
18163;DHT22;9206;50.994;4.538;2023-05-09T20:11:32;13.80;99.90
18163;DHT22;9206;50.994;4.538;2023-05-09T20:14:22;13.80;99.90
18163;DHT22;9206;50.994;4.538;2023-05-09T20:17:11;13.80;99.90
18163;DHT22;9206;50.994;4.538;2023-05-09T20:20:05;13.80;99.90
18163;DHT22;9206;50.994;4.538;2023-05-09T20:22:56;13.80;99.90
18163;DHT22;9206;50.994;4.538;2023-05-09T20:25:47;13.80;99.90
18163;DHT22;9206;50.994;4.538;2023-05-09T20:28:34;13.80;99.90
18163;DHT22;9206;50.994;4.538;2023-05-09T20:31:24;13.80;99.90
18163;DHT22;9206;50.994;4.538;2023-05-09T20:34:11;13.70;99.90
18163;DHT22;9206;50.994;4.538;2023-05-09T20:37:04;13.80;99.90
18163;DHT22;9206;50.994;4.538;2023-05-09T20:40:00;13.80;99.90
18163;DHT22;9206;50.994;4.538;2023-05-09T20:42:49;13.70;99.90
18163;DHT22;9206;50.994;4.538;2023-05-09T20:45:39;13.70;99.90
18163;DHT22;9206;50.994;4.538;2023-05-09T20:48:31;13.70;99.90
18163;DHT22;9206;50.994;4.538;2023-05-09T20:51:18;13.70;99.90
18163;DHT22;9206;50.994;4.538;2023-05-09T20:54:05;13.70;99.90
18163;DHT22;9206;50.994;4.538;2023-05-09T20:57:00;13.70;99.90
18163;DHT22;9206;50.994;4.538;2023-05-09T20:59:55;13.70;99.90
18163;DHT22;9206;50.994;4.538;2023-05-09T21:02:46;13.60;99.90
18163;DHT22;9206;50.994;4.538;2023-05-09T21:05:33;13.60;99.90
18163;DHT22;9206;50.994;4.538;2023-05-09T21:08:27;13.60;99.90
18163;DHT22;9206;50.994;4.538;2023-05-09T21:11:20;13.60;99.90
18163;DHT22;9206;50.994;4.538;2023-05-09T21:14:15;13.60;99.90
18163;DHT22;9206;50.994;4.538;2023-05-09T21:17:32;13.60;99.90
18163;DHT22;9206;50.994;4.538;2023-05-09T21:20:28;13.60;99.90
18163;DHT22;9206;50.994;4.538;2023-05-09T21:23:16;13.50;99.90
18163;DHT22;9206;50.994;4.538;2023-05-09T21:26:06;13.50;99.90
18163;DHT22;9206;50.994;4.538;2023-05-09T21:29:03;13.50;99.90
18163;DHT22;9206;50.994;4.538;2023-05-09T21:31:55;13.50;99.90
18163;DHT22;9206;50.994;4.538;2023-05-09T21:34:54;13.40;99.90
18163;DHT22;9206;50.994;4.538;2023-05-09T21:38:07;13.40;99.90
18163;DHT22;9206;50.994;4.538;2023-05-09T21:40:55;13.40;99.90
18163;DHT22;9206;50.994;4.538;2023-05-09T21:51:05;13.40;99.90
18163;DHT22;9206;50.994;4.538;2023-05-09T21:53:59;13.40;99.90
18163;DHT22;9206;50.994;4.538;2023-05-09T21:56:48;13.40;99.90
18163;DHT22;9206;50.994;4.538;2023-05-09T21:59:37;13.40;99.90
18163;DHT22;9206;50.994;4.538;2023-05-09T22:02:57;13.40;99.90
18163;DHT22;9206;50.994;4.538;2023-05-09T22:05:55;13.40;99.90
18163;DHT22;9206;50.994;4.538;2023-05-09T22:09:03;13.40;99.90
18163;DHT22;9206;50.994;4.538;2023-05-09T22:12:30;13.40;99.90
18163;DHT22;9206;50.994;4.538;2023-05-09T22:19:13;13.40;99.90
18163;DHT22;9206;50.994;4.538;2023-05-09T22:22:13;13.40;99.90
18163;DHT22;9206;50.994;4.538;2023-05-09T22:25:02;13.40;99.90
18163;DHT22;9206;50.994;4.538;2023-05-09T22:28:16;13.40;99.90
18163;DHT22;9206;50.994;4.538;2023-05-09T22:31:28;13.30;99.90
18163;DHT22;9206;50.994;4.538;2023-05-09T22:34:38;13.30;99.90
18163;DHT22;9206;50.994;4.538;2023-05-09T22:37:31;13.30;99.90
18163;DHT22;9206;50.994;4.538;2023-05-09T22:40:36;13.30;99.90
18163;DHT22;9206;50.994;4.538;2023-05-09T22:43:36;13.30;99.90
18163;DHT22;9206;50.994;4.538;2023-05-09T22:46:38;13.20;99.90
18163;DHT22;9206;50.994;4.538;2023-05-09T22:49:38;13.20;99.90
18163;DHT22;9206;50.994;4.538;2023-05-09T22:52:51;13.20;99.90
18163;DHT22;9206;50.994;4.538;2023-05-09T22:56:06;13.10;99.90
18163;DHT22;9206;50.994;4.538;2023-05-09T22:59:06;13.10;99.90
18163;DHT22;9206;50.994;4.538;2023-05-09T23:02:54;13.10;99.90
18163;DHT22;9206;50.994;4.538;2023-05-09T23:05:41;13.10;99.90
18163;DHT22;9206;50.994;4.538;2023-05-09T23:08:30;13.10;99.90
18163;DHT22;9206;50.994;4.538;2023-05-09T23:14:58;13.00;99.90
18163;DHT22;9206;50.994;4.538;2023-05-09T23:17:46;13.00;99.90
18163;DHT22;9206;50.994;4.538;2023-05-09T23:20:35;13.00;99.90
18163;DHT22;9206;50.994;4.538;2023-05-09T23:23:23;13.00;99.90
18163;DHT22;9206;50.994;4.538;2023-05-09T23:26:11;13.00;99.90
18163;DHT22;9206;50.994;4.538;2023-05-09T23:29:04;13.00;99.90
18163;DHT22;9206;50.994;4.538;2023-05-09T23:32:20;13.00;99.90
18163;DHT22;9206;50.994;4.538;2023-05-09T23:35:14;12.90;99.90
18163;DHT22;9206;50.994;4.538;2023-05-09T23:38:02;12.90;99.90
18163;DHT22;9206;50.994;4.538;2023-05-09T23:40:51;12.90;99.90
18163;DHT22;9206;50.994;4.538;2023-05-09T23:44:01;13.00;99.90
18163;DHT22;9206;50.994;4.538;2023-05-09T23:46:52;13.00;99.90
18163;DHT22;9206;50.994;4.538;2023-05-09T23:49:42;13.00;99.90
18163;DHT22;9206;50.994;4.538;2023-05-09T23:52:35;13.00;99.90
18163;DHT22;9206;50.994;4.538;2023-05-09T23:58:59;13.00;99.90
